Time;durP1;ratioP1;P1;durP2;ratioP2;P2;SDS_P1;SDS_P2;PMS_P1;PMS_P2;Temp;Humidity;BMP_temperature;BMP_pressure;BME280_temperature;BME280_humidity;BME280_pressure;Samples;Min_cycle;Max_cycle;Signal;HPM_P1;HPM_P2
2021/06/15 00:01:15;;;;;;;10.10;2.97;;;15.90;99.90;;;;;;5027589;28;20386;-50
2021/06/15 00:03:51;;;;;;;8.43;3.15;;;15.90;99.90;;;;;;5025878;28;20049;-52
2021/06/15 00:06:20;;;;;;;10.23;3.40;;;15.80;99.90;;;;;;5024792;28;20103;-53
2021/06/15 00:08:49;;;;;;;9.73;2.90;;;15.80;99.90;;;;;;5025488;28;20076;-51
2021/06/15 00:11:16;;;;;;;8.30;3.42;;;15.80;99.90;;;;;;5024625;28;20053;-46
2021/06/15 00:13:52;;;;;;;10.50;4.18;;;15.80;99.90;;;;;;5017230;28;20137;-50
2021/06/15 00:16:23;;;;;;;8.95;2.33;;;15.70;99.90;;;;;;5022486;28;20846;-43
2021/06/15 00:18:53;;;;;;;8.23;3.03;;;15.70;99.90;;;;;;5026338;28;20053;-44
2021/06/15 00:21:22;;;;;;;9.27;2.78;;;15.70;99.90;;;;;;5025204;28;20128;-47
2021/06/15 00:24:11;;;;;;;12.18;3.08;;;15.60;99.90;;;;;;5023535;28;20149;-47
2021/06/15 00:26:42;;;;;;;9.55;3.65;;;15.60;99.90;;;;;;5025447;28;20393;-45
2021/06/15 00:29:13;;;;;;;10.63;3.60;;;15.60;99.90;;;;;;5024207;28;20148;-47
2021/06/15 00:31:43;;;;;;;9.27;2.95;;;15.50;99.90;;;;;;5030794;28;20370;-46
2021/06/15 00:34:12;;;;;;;5.80;2.65;;;15.50;99.90;;;;;;5025685;28;20390;-44
2021/06/15 00:36:43;;;;;;;8.07;2.47;;;15.50;99.90;;;;;;5004770;28;20509;-53
2021/06/15 00:39:35;;;;;;;10.70;2.60;;;15.50;99.90;;;;;;5006247;28;20050;-51
2021/06/15 00:42:07;;;;;;;;;;;15.50;99.90;;;;;;5040929;28;20099;-45
2021/06/15 00:44:36;;;;;;;10.55;2.55;;;15.50;99.90;;;;;;5024424;28;20369;-52
2021/06/15 00:47:07;;;;;;;9.52;2.45;;;15.50;99.90;;;;;;5024321;28;20136;-49
2021/06/15 00:49:40;;;;;;;8.45;2.30;;;15.50;99.90;;;;;;5025042;28;20145;-49
2021/06/15 00:52:08;;;;;;;10.70;2.55;;;15.50;99.90;;;;;;5023272;28;20049;-51
2021/06/15 00:54:36;;;;;;;7.63;2.55;;;15.50;99.90;;;;;;5025505;28;20045;-46
2021/06/15 00:57:14;;;;;;;9.07;2.70;;;15.40;99.90;;;;;;5023339;28;20052;-51
2021/06/15 00:59:43;;;;;;;8.82;2.88;;;15.50;99.90;;;;;;5022287;28;20041;-44
2021/06/15 01:02:13;;;;;;;6.90;2.28;;;15.50;99.90;;;;;;5024126;28;20138;-47
2021/06/15 01:04:41;;;;;;;8.13;2.40;;;15.50;99.90;;;;;;5027404;28;20045;-44
2021/06/15 01:07:25;;;;;;;11.05;2.35;;;15.50;99.90;;;;;;5026444;28;20057;-49
2021/06/15 01:10:17;;;;;;;9.45;3.05;;;15.50;99.90;;;;;;5027572;28;20074;-51
2021/06/15 01:12:57;;;;;;;11.82;2.47;;;15.50;99.90;;;;;;5007435;28;20065;-47
2021/06/15 01:15:32;;;;;;;11.68;2.78;;;15.50;99.90;;;;;;5019517;28;20103;-46
2021/06/15 01:18:13;;;;;;;8.80;2.50;;;15.50;99.90;;;;;;5027231;28;20171;-44
2021/06/15 01:20:46;;;;;;;8.95;2.42;;;15.40;99.90;;;;;;5007691;28;20161;-47
2021/06/15 01:23:21;;;;;;;10.25;2.20;;;15.30;99.90;;;;;;5027518;28;20148;-48
2021/06/15 01:26:28;;;;;;;7.32;2.33;;;15.40;99.90;;;;;;5026781;28;20033;-47
2021/06/15 01:29:02;;;;;;;11.10;2.90;;;15.30;99.90;;;;;;5027313;28;20045;-47
2021/06/15 01:31:39;;;;;;;8.05;2.05;;;15.30;99.90;;;;;;5022493;28;20048;-47
2021/06/15 01:34:30;;;;;;;8.20;2.85;;;15.30;99.90;;;;;;5018389;28;20045;-52
2021/06/15 01:37:36;;;;;;;10.05;2.22;;;15.20;99.90;;;;;;5023328;28;20054;-49
2021/06/15 01:41:02;;;;;;;8.73;2.50;;;15.10;99.90;;;;;;5036395;28;20523;-49
2021/06/15 01:43:45;;;;;;;10.23;2.78;;;15.00;99.90;;;;;;4973671;28;20112;-44
2021/06/15 01:46:20;;;;;;;8.02;2.15;;;15.00;99.90;;;;;;4954893;28;20439;-49
2021/06/15 01:48:59;;;;;;;7.85;2.10;;;15.00;99.90;;;;;;4984179;28;20050;-49
2021/06/15 01:51:32;;;;;;;12.30;2.55;;;15.00;99.90;;;;;;4957875;28;20094;-51
2021/06/15 01:54:10;;;;;;;9.85;2.28;;;14.90;99.90;;;;;;4984699;28;20072;-49
2021/06/15 01:56:48;;;;;;;8.35;1.92;;;14.90;99.90;;;;;;4966832;28;20787;-50
2021/06/15 01:59:22;;;;;;;11.57;2.30;;;14.80;99.90;;;;;;4966694;28;20115;-47
2021/06/15 02:01:57;;;;;;;11.70;2.70;;;14.80;99.90;;;;;;4949903;28;20074;-47
2021/06/15 02:04:32;;;;;;;10.90;2.83;;;14.80;99.90;;;;;;4962347;28;20066;-53
2021/06/15 02:07:04;;;;;;;10.20;2.25;;;14.80;99.90;;;;;;4951104;28;20051;-48
2021/06/15 02:09:40;;;;;;;9.35;2.63;;;14.70;99.90;;;;;;4952963;28;20074;-48
2021/06/15 02:12:30;;;;;;;13.05;2.72;;;14.70;99.90;;;;;;4966831;28;20054;-44
2021/06/15 02:15:41;;;;;;;12.13;2.53;;;14.70;99.90;;;;;;4951692;28;20429;-44
2021/06/15 02:18:35;;;;;;;13.48;2.65;;;14.60;99.90;;;;;;4968339;28;20522;-55
2021/06/15 02:21:20;;;;;;;10.20;2.38;;;14.60;99.90;;;;;;5006244;28;20145;-51
2021/06/15 02:24:00;;;;;;;9.55;2.08;;;14.60;99.90;;;;;;5038258;28;20095;-46
2021/06/15 02:26:54;;;;;;;8.95;2.15;;;14.60;99.90;;;;;;5012148;28;20053;-49
2021/06/15 02:29:26;;;;;;;7.72;2.10;;;14.50;99.90;;;;;;5025624;28;20037;-50
2021/06/15 02:32:01;;;;;;;7.67;2.10;;;14.50;99.90;;;;;;5028998;28;20042;-50
2021/06/15 02:34:37;;;;;;;9.43;2.40;;;14.50;99.90;;;;;;5029006;28;20037;-46
2021/06/15 02:37:10;;;;;;;11.27;2.75;;;14.60;99.90;;;;;;5024763;28;20068;-53
2021/06/15 02:39:38;;;;;;;10.52;1.88;;;14.50;99.90;;;;;;5040985;28;20104;-51
2021/06/15 02:42:13;;;;;;;10.93;3.22;;;14.50;99.90;;;;;;5041518;28;20555;-47
2021/06/15 02:44:44;;;;;;;10.82;2.15;;;14.60;99.90;;;;;;5022765;28;20378;-46
2021/06/15 02:47:18;;;;;;;14.90;4.10;;;14.50;99.90;;;;;;5025379;28;20045;-47
2021/06/15 02:49:57;;;;;;;9.10;2.13;;;14.50;99.90;;;;;;5026572;28;20037;-44
2021/06/15 02:52:39;;;;;;;11.75;2.22;;;14.50;99.90;;;;;;5025477;28;20146;-48
2021/06/15 02:55:18;;;;;;;12.73;2.20;;;14.50;99.90;;;;;;5026136;28;20042;-49
2021/06/15 02:57:48;;;;;;;8.45;2.38;;;14.60;99.90;;;;;;5021493;28;20050;-49
2021/06/15 03:00:16;;;;;;;9.85;2.70;;;14.50;99.90;;;;;;5005472;28;20414;-47
2021/06/15 03:02:45;;;;;;;5.13;1.70;;;14.50;99.90;;;;;;5004966;28;20041;-51
2021/06/15 03:05:17;;;;;;;9.80;2.03;;;14.50;99.90;;;;;;5007925;28;20077;-48
2021/06/15 03:07:46;;;;;;;13.52;2.40;;;14.50;99.90;;;;;;5027971;28;20052;-45
2021/06/15 03:10:22;;;;;;;10.52;2.15;;;14.50;99.90;;;;;;5025047;28;20049;-48
2021/06/15 03:12:55;;;;;;;9.25;2.22;;;14.50;99.90;;;;;;5023480;28;20161;-47
2021/06/15 03:15:34;;;;;;;15.68;3.17;;;14.50;99.90;;;;;;5024748;28;20060;-46
2021/06/15 03:18:08;;;;;;;8.95;2.00;;;14.50;99.90;;;;;;5025780;28;20045;-46
2021/06/15 03:20:36;;;;;;;10.73;2.45;;;14.50;99.90;;;;;;5024472;28;20456;-44
2021/06/15 03:23:10;;;;;;;10.75;2.28;;;14.40;99.90;;;;;;5024749;28;20087;-48
2021/06/15 03:25:42;;;;;;;7.68;2.03;;;14.40;99.90;;;;;;5020843;28;20498;-49
2021/06/15 03:28:26;;;;;;;6.80;1.80;;;14.40;99.90;;;;;;5022158;28;20130;-45
2021/06/15 03:31:23;;;;;;;8.32;1.80;;;14.40;99.90;;;;;;5023628;28;20559;-44
2021/06/15 03:33:55;;;;;;;8.90;1.75;;;14.40;99.90;;;;;;5023192;28;20106;-44
2021/06/15 03:36:24;;;;;;;11.05;2.40;;;14.40;99.90;;;;;;5024067;28;20053;-46
2021/06/15 03:38:56;;;;;;;10.52;2.70;;;14.40;99.90;;;;;;5022452;28;20072;-50
2021/06/15 03:41:29;;;;;;;12.65;2.38;;;14.40;99.90;;;;;;5031492;28;20096;-46
2021/06/15 03:44:02;;;;;;;8.25;2.10;;;14.40;99.90;;;;;;5025673;28;20057;-44
2021/06/15 03:46:35;;;;;;;13.80;2.65;;;14.40;99.90;;;;;;5024233;28;20056;-49
2021/06/15 03:49:07;;;;;;;7.03;1.98;;;14.50;99.90;;;;;;5025159;28;20041;-49
2021/06/15 03:51:38;;;;;;;9.35;1.90;;;14.50;99.90;;;;;;5025006;28;20041;-45
2021/06/15 03:54:12;;;;;;;13.60;2.75;;;14.50;99.90;;;;;;5025225;28;20486;-45
2021/06/15 03:56:49;;;;;;;9.88;2.05;;;14.60;99.90;;;;;;5025808;28;20053;-44
2021/06/15 03:59:19;;;;;;;8.65;1.90;;;14.60;99.90;;;;;;5025252;28;20049;-48
2021/06/15 04:01:52;;;;;;;12.50;2.35;;;14.60;99.90;;;;;;5025266;28;20049;-46
2021/06/15 04:04:28;;;;;;;13.30;2.58;;;14.60;99.90;;;;;;5024051;28;20136;-49
2021/06/15 04:06:55;;;;;;;16.58;2.17;;;14.60;99.90;;;;;;5024063;28;20406;-53
2021/06/15 04:09:32;;;;;;;12.63;2.22;;;14.60;99.90;;;;;;5030053;28;20045;-46
2021/06/15 04:11:59;;;;;;;8.80;2.20;;;14.70;99.90;;;;;;5025459;28;20508;-47
2021/06/15 04:14:34;;;;;;;6.90;2.10;;;14.70;99.90;;;;;;5024127;28;20049;-59
2021/06/15 04:17:08;;;;;;;12.55;2.53;;;14.80;99.90;;;;;;5024955;28;20081;-55
2021/06/15 04:19:41;;;;;;;;;;;14.80;99.90;;;;;;5025003;28;20433;-54
2021/06/15 04:22:12;;;;;;;11.82;2.00;;;14.90;99.90;;;;;;5024145;28;20016;-54
2021/06/15 04:24:43;;;;;;;10.40;2.08;;;14.90;99.90;;;;;;5023735;28;20029;-52
2021/06/15 04:27:12;;;;;;;13.35;2.42;;;15.00;99.90;;;;;;5025756;28;20793;-50
2021/06/15 04:29:42;;;;;;;9.00;2.30;;;15.00;99.90;;;;;;5024271;28;20155;-59
2021/06/15 04:32:14;;;;;;;14.20;2.85;;;15.10;99.90;;;;;;5024574;28;20052;-50
2021/06/15 04:34:48;;;;;;;11.88;2.85;;;15.10;99.90;;;;;;5023715;28;20041;-49
2021/06/15 04:37:35;;;;;;;13.45;2.13;;;15.10;99.90;;;;;;5024934;28;20053;-54
2021/06/15 04:40:13;;;;;;;11.77;2.72;;;15.20;99.90;;;;;;5020203;28;20548;-48
2021/06/15 04:42:46;;;;;;;9.43;1.95;;;15.20;99.90;;;;;;5028209;28;20751;-62
2021/06/15 04:45:43;;;;;;;11.35;2.58;;;15.20;99.90;;;;;;5028369;28;20397;-56
2021/06/15 04:48:12;;;;;;;9.80;2.60;;;15.20;99.90;;;;;;5028697;28;20045;-51
2021/06/15 04:50:39;;;;;;;16.90;3.22;;;15.30;99.90;;;;;;5027958;28;20495;-53
2021/06/15 04:53:07;;;;;;;10.95;2.10;;;15.30;99.90;;;;;;5028367;28;20053;-50
2021/06/15 04:55:36;;;;;;;9.00;1.73;;;15.40;99.90;;;;;;5028369;28;20049;-57
2021/06/15 04:58:08;;;;;;;8.63;2.05;;;15.40;99.90;;;;;;5035312;28;20460;-57
2021/06/15 05:00:34;;;;;;;12.45;3.00;;;15.50;99.90;;;;;;5028188;28;20045;-52
2021/06/15 05:03:11;;;;;;;12.18;2.75;;;15.60;99.90;;;;;;5026824;28;20045;-57
2021/06/15 05:05:37;;;;;;;9.13;1.90;;;15.60;99.90;;;;;;5028085;28;20137;-53
2021/06/15 05:08:08;;;;;;;9.48;2.10;;;15.60;99.90;;;;;;5028297;28;20084;-55
2021/06/15 05:10:39;;;;;;;9.07;2.50;;;15.60;99.90;;;;;;5027984;28;20104;-49
2021/06/15 05:13:23;;;;;;;12.35;2.45;;;15.70;99.90;;;;;;5023060;28;20073;-51
2021/06/15 05:15:54;;;;;;;9.50;1.77;;;15.70;99.90;;;;;;5029047;28;20053;-51
2021/06/15 05:18:24;;;;;;;12.32;2.25;;;15.80;99.90;;;;;;5029251;28;20061;-57
2021/06/15 05:20:51;;;;;;;14.77;2.53;;;15.90;99.90;;;;;;5026717;28;20130;-47
2021/06/15 05:23:39;;;;;;;9.82;2.20;;;15.90;99.90;;;;;;5026137;28;20044;-51
2021/06/15 05:26:06;;;;;;;9.05;2.42;;;16.00;99.90;;;;;;5019845;28;20038;-51
2021/06/15 05:28:37;;;;;;;9.55;2.08;;;16.10;99.90;;;;;;5022580;28;20538;-53
2021/06/15 05:31:03;;;;;;;103.20;79.22;;;16.00;99.90;;;;;;5010486;28;20726;-56
2021/06/15 05:33:33;;;;;;;16.13;5.03;;;16.10;99.90;;;;;;5012446;28;20129;-59
2021/06/15 05:36:01;;;;;;;18.52;9.15;;;16.20;99.90;;;;;;5025597;28;20056;-54
2021/06/15 05:38:27;;;;;;;11.60;3.83;;;16.20;99.90;;;;;;5028944;28;20695;-52
2021/06/15 05:40:54;;;;;;;10.48;2.65;;;16.30;99.90;;;;;;5028595;28;20446;-55
2021/06/15 05:43:23;;;;;;;13.18;2.65;;;16.30;99.90;;;;;;5026507;28;20044;-51
2021/06/15 05:45:50;;;;;;;13.73;7.65;;;16.30;99.50;;;;;;5027584;28;20057;-51
2021/06/15 05:48:18;;;;;;;11.10;2.65;;;16.40;99.60;;;;;;5029359;28;20128;-48
2021/06/15 05:50:44;;;;;;;16.33;5.50;;;16.40;99.30;;;;;;5020721;28;20046;-56
2021/06/15 05:53:10;;;;;;;10.80;3.47;;;16.60;99.10;;;;;;5026778;28;20053;-48
2021/06/15 05:55:37;;;;;;;37.67;30.02;;;16.70;98.50;;;;;;5029400;28;20505;-55
2021/06/15 05:58:10;;;;;;;35.63;25.15;;;16.90;98.50;;;;;;5029298;28;20072;-53
2021/06/15 06:00:36;;;;;;;14.60;4.88;;;17.00;97.80;;;;;;5026312;28;20037;-56
2021/06/15 06:03:07;;;;;;;17.25;7.70;;;17.10;97.40;;;;;;5014713;28;20045;-52
2021/06/15 06:08:22;;;;;;;14.15;7.20;;;17.50;96.50;;;;;;5025836;28;20053;-52
2021/06/15 06:10:53;;;;;;;33.93;19.77;;;17.80;95.90;;;;;;5027328;28;20048;-47
2021/06/15 06:13:20;;;;;;;16.38;8.63;;;17.90;93.60;;;;;;5028831;28;20791;-49
2021/06/15 06:15:50;;;;;;;8.65;2.25;;;18.10;94.20;;;;;;5023492;28;20151;-57
2021/06/15 06:18:16;;;;;;;17.13;9.95;;;18.40;94.00;;;;;;5027318;28;20286;-51
2021/06/15 06:20:43;;;;;;;34.80;27.38;;;18.80;93.40;;;;;;5026410;28;20037;-52
2021/06/15 06:23:12;;;;;;;14.85;6.63;;;19.00;92.20;;;;;;5027457;28;20048;-49
2021/06/15 06:25:40;;;;;;;31.50;23.73;;;19.40;90.60;;;;;;5025493;28;20481;-51
2021/06/15 06:28:07;;;;;;;17.88;9.35;;;19.70;90.80;;;;;;5028097;28;20042;-51
2021/06/15 06:30:35;;;;;;;45.92;39.60;;;19.90;90.30;;;;;;5021636;28;20089;-56
2021/06/15 06:33:04;;;;;;;12.18;4.88;;;20.10;89.40;;;;;;5014638;28;20041;-64
2021/06/15 06:35:31;;;;;;;13.30;7.55;;;20.10;87.40;;;;;;5016385;28;20053;-51
2021/06/15 06:37:58;;;;;;;17.02;3.72;;;20.30;87.80;;;;;;5010950;28;20218;-51
2021/06/15 06:40:25;;;;;;;9.20;3.70;;;20.60;87.20;;;;;;5027068;28;20117;-50
2021/06/15 06:42:54;;;;;;;20.17;7.57;;;20.60;84.50;;;;;;5008817;28;20046;-59
2021/06/15 06:45:23;;;;;;;14.15;2.95;;;20.60;83.30;;;;;;5014951;28;20053;-52
2021/06/15 06:47:49;;;;;;;10.57;4.00;;;20.60;82.70;;;;;;5018534;28;20136;-51
2021/06/15 06:50:18;;;;;;;10.93;3.83;;;20.80;79.20;;;;;;5019507;28;20131;-48
2021/06/15 06:52:49;;;;;;;67.25;57.30;;;20.90;79.50;;;;;;5010537;28;20077;-54
2021/06/15 06:55:19;;;;;;;55.38;49.65;;;21.00;80.70;;;;;;5019441;28;20057;-50
2021/06/15 06:57:47;;;;;;;24.10;15.35;;;21.20;79.30;;;;;;5024237;28;20053;-50
2021/06/15 07:00:16;;;;;;;35.00;27.67;;;21.30;79.20;;;;;;5022227;28;20045;-57
2021/06/15 07:02:48;;;;;;;24.73;20.30;;;21.30;75.60;;;;;;5017658;28;20052;-50
2021/06/15 07:05:15;;;;;;;23.65;17.13;;;21.60;77.10;;;;;;5024110;28;20049;-52
2021/06/15 07:07:41;;;;;;;15.32;5.78;;;21.10;76.70;;;;;;5023463;28;20057;-50
2021/06/15 07:10:07;;;;;;;14.50;6.03;;;21.20;76.70;;;;;;5012563;28;20052;-53
2021/06/15 07:12:34;;;;;;;15.52;10.10;;;21.20;77.00;;;;;;5022153;28;20110;-52
2021/06/15 07:15:02;;;;;;;7.80;1.63;;;21.10;76.00;;;;;;5023745;28;20045;-48
2021/06/15 07:17:32;;;;;;;10.02;3.45;;;21.00;77.10;;;;;;5023270;28;20046;-60
2021/06/15 07:19:58;;;;;;;8.50;2.67;;;21.40;72.60;;;;;;5013734;28;20301;-51
2021/06/15 07:22:29;;;;;;;8.43;2.85;;;21.60;74.70;;;;;;5012533;28;20052;-49
2021/06/15 07:24:55;;;;;;;9.73;2.63;;;21.80;73.20;;;;;;5016978;28;20077;-52
2021/06/15 07:27:44;;;;;;;14.05;9.80;;;21.80;71.50;;;;;;5006340;28;20123;-47
2021/06/15 07:30:11;;;;;;;11.15;7.35;;;21.60;67.90;;;;;;5020645;28;20075;-50
2021/06/15 07:32:57;;;;;;;12.65;6.50;;;21.60;68.70;;;;;;5019723;28;20048;-54
2021/06/15 07:35:44;;;;;;;17.50;9.70;;;21.60;68.70;;;;;;5024293;28;20443;-56
2021/06/15 07:38:32;;;;;;;20.67;13.20;;;21.50;68.10;;;;;;5019610;28;20478;-50
2021/06/15 07:41:03;;;;;;;14.75;8.73;;;22.00;68.60;;;;;;5017573;28;20065;-52
2021/06/15 07:43:34;;;;;;;9.10;2.75;;;22.20;69.70;;;;;;5025347;28;20486;-60
2021/06/15 07:46:25;;;;;;;9.20;3.58;;;22.50;66.10;;;;;;5025854;28;20049;-51
2021/06/15 07:49:16;;;;;;;8.93;2.28;;;22.70;64.00;;;;;;5020927;28;20045;-48
2021/06/15 07:51:48;;;;;;;9.18;3.45;;;22.80;63.20;;;;;;5012389;28;20048;-51
2021/06/15 07:54:35;;;;;;;9.13;2.22;;;22.90;62.50;;;;;;5024162;28;20045;-50
2021/06/15 07:57:24;;;;;;;9.82;5.03;;;22.70;61.80;;;;;;5011879;28;20073;-48
2021/06/15 08:00:04;;;;;;;8.70;2.22;;;22.40;60.30;;;;;;5006795;28;20101;-56
2021/06/15 08:02:59;;;;;;;8.73;2.20;;;22.70;58.90;;;;;;5028274;28;20050;-61
2021/06/15 08:05:46;;;;;;;9.00;2.58;;;22.90;59.30;;;;;;5005594;28;20068;-51
2021/06/15 08:08:18;;;;;;;9.40;3.35;;;23.30;60.80;;;;;;5014891;28;20684;-51
2021/06/15 08:11:07;;;;;;;9.20;1.98;;;23.30;57.90;;;;;;5023997;28;20049;-47
2021/06/15 08:13:35;;;;;;;9.90;3.78;;;23.30;57.90;;;;;;5026358;28;20041;-53
2021/06/15 08:16:05;;;;;;;6.95;3.63;;;23.60;55.10;;;;;;5014580;28;20102;-59
2021/06/15 08:18:35;;;;;;;7.95;1.70;;;23.70;54.60;;;;;;5027441;28;20092;-50
2021/06/15 08:21:04;;;;;;;20.50;14.38;;;24.00;52.20;;;;;;5029276;28;20041;-53
2021/06/15 08:23:32;;;;;;;12.27;5.60;;;24.10;52.20;;;;;;5035331;28;20092;-52
2021/06/15 08:26:19;;;;;;;13.65;8.43;;;24.40;52.80;;;;;;5024866;28;20042;-56
2021/06/15 08:28:48;;;;;;;10.85;3.90;;;24.50;53.60;;;;;;5019982;28;20045;-50
2021/06/15 08:31:37;;;;;;;7.22;2.33;;;24.60;50.70;;;;;;5021376;28;20132;-51
2021/06/15 08:34:04;;;;;;;9.68;4.75;;;24.40;50.40;;;;;;5016977;28;20605;-54
2021/06/15 08:36:33;;;;;;;7.95;2.50;;;24.60;51.00;;;;;;5031270;28;20481;-47
2021/06/15 08:39:20;;;;;;;7.05;2.25;;;24.60;51.10;;;;;;5021626;28;20049;-51
2021/06/15 08:41:51;;;;;;;9.48;2.33;;;24.80;51.40;;;;;;5018445;28;20733;-55
2021/06/15 08:44:20;;;;;;;7.05;2.05;;;24.80;49.50;;;;;;5026739;28;20050;-49
2021/06/15 08:46:50;;;;;;;7.97;2.83;;;24.80;49.90;;;;;;5026982;28;20111;-52
2021/06/15 08:49:19;;;;;;;7.95;3.38;;;25.10;49.70;;;;;;5017337;28;20054;-46
2021/06/15 08:51:46;;;;;;;7.43;2.15;;;25.20;49.00;;;;;;5023696;28;20402;-59
2021/06/15 08:54:18;;;;;;;15.65;11.05;;;25.20;49.70;;;;;;5023874;28;20144;-57
2021/06/15 08:56:47;;;;;;;11.93;3.53;;;25.40;47.50;;;;;;5023553;28;20709;-53
2021/06/15 08:59:31;;;;;;;7.75;2.83;;;25.30;44.70;;;;;;5021972;28;20037;-54
2021/06/15 09:02:07;;;;;;;7.78;2.00;;;25.10;45.80;;;;;;5028919;28;20052;-52
2021/06/15 09:04:37;;;;;;;5.07;1.48;;;25.20;46.50;;;;;;5028092;28;20050;-54
2021/06/15 09:07:06;;;;;;;6.95;1.80;;;25.40;45.00;;;;;;5008684;28;20073;-52
2021/06/15 09:09:48;;;;;;;6.95;2.00;;;25.10;45.10;;;;;;5027663;28;20688;-52
2021/06/15 09:12:21;;;;;;;5.72;1.90;;;25.00;43.70;;;;;;5035374;28;20486;-53
2021/06/15 09:14:53;;;;;;;8.73;3.55;;;25.20;46.20;;;;;;5025333;28;20442;-50
2021/06/15 09:17:26;;;;;;;8.73;2.65;;;25.60;44.20;;;;;;5016906;28;20046;-55
2021/06/15 09:19:57;;;;;;;8.95;3.85;;;25.80;44.00;;;;;;5017977;28;20046;-66
2021/06/15 09:22:28;;;;;;;6.13;1.65;;;26.00;44.70;;;;;;5020137;28;20520;-51
2021/06/15 09:24:55;;;;;;;7.53;1.83;;;25.90;45.50;;;;;;5013201;28;20057;-55
2021/06/15 09:27:35;;;;;;;9.10;4.15;;;26.00;46.30;;;;;;5010477;28;20042;-49
2021/06/15 09:30:10;;;;;;;6.72;1.65;;;26.30;43.90;;;;;;5027375;28;20056;-49
2021/06/15 09:32:41;;;;;;;6.82;1.65;;;26.20;44.80;;;;;;5014650;28;20504;-46
2021/06/15 09:35:31;;;;;;;8.82;3.47;;;26.50;44.30;;;;;;5009688;28;20042;-52
2021/06/15 09:38:01;;;;;;;7.85;2.22;;;26.70;42.20;;;;;;5008578;28;20053;-56
2021/06/15 09:40:36;;;;;;;7.78;1.98;;;26.90;43.80;;;;;;5018701;28;20042;-59
2021/06/15 09:43:10;;;;;;;8.07;1.60;;;26.70;44.00;;;;;;5020626;28;20128;-52
2021/06/15 09:45:47;;;;;;;7.70;2.35;;;26.70;43.80;;;;;;5017801;28;20063;-53
2021/06/15 09:48:32;;;;;;;9.27;2.15;;;26.70;42.50;;;;;;5027182;28;20050;-51
2021/06/15 09:51:13;;;;;;;6.82;2.47;;;26.90;43.20;;;;;;5021552;28;20045;-48
2021/06/15 09:53:52;;;;;;;7.43;2.00;;;26.20;43.20;;;;;;5027056;28;20041;-47
2021/06/15 09:56:18;;;;;;;6.35;1.58;;;26.90;44.70;;;;;;5026548;28;20481;-51
2021/06/15 09:58:53;;;;;;;8.13;2.17;;;26.50;43.30;;;;;;5029422;28;20512;-52
2021/06/15 10:01:28;;;;;;;7.82;2.10;;;25.90;43.50;;;;;;5020735;28;20553;-47
2021/06/15 10:04:21;;;;;;;5.35;1.60;;;25.90;45.20;;;;;;5022574;28;20091;-50
2021/06/15 10:06:52;;;;;;;7.82;1.90;;;26.40;43.60;;;;;;5008176;28;20057;-51
2021/06/15 10:09:35;;;;;;;9.98;3.28;;;26.70;42.70;;;;;;5022395;28;20053;-55
2021/06/15 10:12:04;;;;;;;12.02;8.07;;;26.60;43.10;;;;;;5014292;28;20046;-48
2021/06/15 10:14:34;;;;;;;8.95;3.55;;;26.70;42.90;;;;;;5026933;28;20132;-49
2021/06/15 10:17:04;;;;;;;8.43;2.15;;;26.70;42.60;;;;;;5023430;28;20056;-47
2021/06/15 10:19:33;;;;;;;8.30;2.07;;;27.20;42.90;;;;;;5026450;28;20042;-59
2021/06/15 10:22:03;;;;;;;5.45;1.95;;;27.50;41.50;;;;;;5017330;28;20489;-52
2021/06/15 10:24:38;;;;;;;8.73;3.25;;;27.60;41.80;;;;;;5026228;28;20045;-52
2021/06/15 10:27:12;;;;;;;5.97;1.85;;;27.40;40.60;;;;;;5015294;28;20077;-57
2021/06/15 10:29:48;;;;;;;6.35;1.55;;;27.80;40.10;;;;;;5020360;28;20038;-51
2021/06/15 10:32:20;;;;;;;6.30;2.55;;;27.60;40.40;;;;;;5007347;28;20046;-55
2021/06/15 10:34:57;;;;;;;6.10;1.90;;;27.80;39.10;;;;;;5021820;28;20473;-55
2021/06/15 10:37:33;;;;;;;6.43;1.80;;;27.90;39.00;;;;;;5008040;28;20107;-53
2021/06/15 10:40:04;;;;;;;8.00;2.20;;;27.40;40.00;;;;;;5015872;28;20516;-52
2021/06/15 10:42:38;;;;;;;9.50;3.78;;;27.70;41.80;;;;;;5010937;28;20045;-48
2021/06/15 10:45:19;;;;;;;10.60;6.13;;;27.90;42.00;;;;;;5025304;28;20096;-49
2021/06/15 10:48:05;;;;;;;;;;;27.70;40.50;;;;;;5027524;28;20041;-47
2021/06/15 10:50:47;;;;;;;8.15;2.75;;;27.00;40.90;;;;;;5021282;28;19929;-48
2021/06/15 10:53:36;;;;;;;6.95;2.47;;;27.20;41.70;;;;;;5021333;28;20715;-54
2021/06/15 10:56:04;;;;;;;6.05;2.30;;;27.30;40.10;;;;;;5017746;28;20053;-53
2021/06/15 10:58:39;;;;;;;16.75;14.75;;;27.60;42.00;;;;;;4996024;28;20391;-50
2021/06/15 11:01:15;;;;;;;10.02;2.30;;;27.80;39.80;;;;;;5027175;28;20098;-52
2021/06/15 11:03:49;;;;;;;8.93;2.30;;;27.90;39.70;;;;;;5021387;28;20092;-48
2021/06/15 11:06:21;;;;;;;7.35;2.53;;;27.60;41.10;;;;;;5013708;28;20132;-49
2021/06/15 11:09:15;;;;;;;7.95;2.78;;;27.40;39.70;;;;;;5024272;28;20056;-51
2021/06/15 11:12:18;;;;;;;8.18;2.42;;;27.50;40.60;;;;;;5028897;28;20041;-54
2021/06/15 11:15:10;;;;;;;7.28;2.20;;;27.80;41.30;;;;;;5015449;28;20042;-55
2021/06/15 11:17:49;;;;;;;12.02;8.02;;;27.80;40.00;;;;;;5028131;28;20037;-47
2021/06/15 11:20:38;;;;;;;8.48;1.90;;;27.40;38.30;;;;;;5024522;28;20045;-49
2021/06/15 11:23:13;;;;;;;6.60;2.05;;;27.10;40.40;;;;;;5012262;28;20839;-52
2021/06/15 11:26:02;;;;;;;8.20;2.33;;;27.60;41.40;;;;;;5012472;28;20129;-53
2021/06/15 11:28:46;;;;;;;7.25;3.47;;;27.80;40.80;;;;;;5014765;28;20050;-52
2021/06/15 11:31:18;;;;;;;8.40;2.20;;;27.90;38.40;;;;;;5012552;28;20457;-47
2021/06/15 11:34:15;;;;;;;5.82;1.65;;;27.80;38.00;;;;;;5013906;28;20372;-46
2021/06/15 11:36:50;;;;;;;9.10;3.45;;;27.80;38.50;;;;;;5015489;28;20085;-52
2021/06/15 11:39:32;;;;;;;7.05;1.80;;;27.20;38.80;;;;;;5021184;28;20041;-49
2021/06/15 11:42:20;;;;;;;7.90;2.75;;;26.80;40.70;;;;;;5020700;28;20496;-52
2021/06/15 11:45:04;;;;;;;8.90;1.88;;;26.30;41.60;;;;;;5020897;28;20048;-49
2021/06/15 11:47:47;;;;;;;6.97;1.75;;;26.10;42.10;;;;;;5023278;28;20046;-50
2021/06/15 11:50:23;;;;;;;6.70;1.33;;;26.30;40.70;;;;;;5015321;28;20351;-52
2021/06/15 11:52:59;;;;;;;6.93;2.03;;;26.80;42.50;;;;;;5014487;28;20061;-53
2021/06/15 11:55:47;;;;;;;8.00;1.80;;;27.00;40.90;;;;;;5021916;28;20509;-52
2021/06/15 11:58:19;;;;;;;7.50;1.95;;;27.40;39.90;;;;;;5011856;28;20344;-53
2021/06/15 12:01:06;;;;;;;6.47;1.80;;;27.80;38.90;;;;;;5020190;28;20038;-50
2021/06/15 12:03:46;;;;;;;7.45;2.15;;;27.20;39.60;;;;;;5015920;28;20046;-52
2021/06/15 12:06:17;;;;;;;12.63;9.00;;;27.00;40.90;;;;;;5013124;28;20537;-50
2021/06/15 12:08:50;;;;;;;16.20;10.30;;;26.40;40.30;;;;;;5022039;28;20769;-49
2021/06/15 12:11:22;;;;;;;5.88;1.55;;;26.50;40.50;;;;;;5022655;28;20137;-50
2021/06/15 12:13:55;;;;;;;6.80;1.98;;;26.80;42.10;;;;;;5022116;28;20095;-53
2021/06/15 12:16:25;;;;;;;7.07;2.03;;;27.00;41.00;;;;;;5025671;28;20076;-48
2021/06/15 12:18:58;;;;;;;7.35;1.92;;;27.00;40.60;;;;;;5025368;28;20054;-49
2021/06/15 12:21:35;;;;;;;6.03;1.70;;;27.00;39.80;;;;;;5018337;28;20046;-52
2021/06/15 12:24:09;;;;;;;5.80;1.38;;;27.50;39.30;;;;;;5025626;28;20684;-58
2021/06/15 12:26:41;;;;;;;4.93;1.45;;;27.50;39.40;;;;;;5015155;28;20478;-52
2021/06/15 12:29:13;;;;;;;6.68;1.70;;;27.90;40.60;;;;;;5012325;28;20603;-53
2021/06/15 12:31:48;;;;;;;6.80;1.85;;;28.10;39.70;;;;;;5039194;28;20061;-52
2021/06/15 12:34:25;;;;;;;4.72;1.90;;;27.90;38.30;;;;;;5032375;28;20095;-50
2021/06/15 12:37:03;;;;;;;5.30;1.42;;;28.10;39.30;;;;;;5024984;28;20123;-47
2021/06/15 12:39:36;;;;;;;6.55;1.80;;;28.00;38.20;;;;;;5023842;28;20486;-50
2021/06/15 12:42:13;;;;;;;6.70;1.63;;;28.40;36.60;;;;;;5025417;28;20060;-50
2021/06/15 12:44:43;;;;;;;3.78;1.80;;;28.20;37.80;;;;;;5021403;28;20144;-60
2021/06/15 12:47:11;;;;;;;7.05;2.45;;;28.20;37.20;;;;;;5022897;28;20045;-52
2021/06/15 12:49:58;;;;;;;8.48;3.92;;;28.60;38.00;;;;;;5016801;28;20040;-50
2021/06/15 12:52:34;;;;;;;6.85;1.80;;;28.30;36.40;;;;;;5012999;28;20073;-52
2021/06/15 12:55:16;;;;;;;6.57;1.60;;;28.60;36.30;;;;;;5012578;28;20045;-51
2021/06/15 12:57:58;;;;;;;6.55;1.90;;;28.60;37.70;;;;;;5018937;28;20041;-63
2021/06/15 13:00:30;;;;;;;11.05;6.35;;;28.70;37.20;;;;;;5014949;28;20493;-56
2021/06/15 13:03:12;;;;;;;7.75;2.22;;;28.20;36.20;;;;;;5028968;28;20064;-52
2021/06/15 13:05:41;;;;;;;9.68;5.63;;;28.20;39.20;;;;;;5026718;28;20038;-50
2021/06/15 13:08:09;;;;;;;7.43;2.45;;;28.20;37.80;;;;;;5020477;28;20112;-47
2021/06/15 13:10:40;;;;;;;6.15;1.77;;;27.90;37.80;;;;;;5028508;28;20050;-54
2021/06/15 13:13:17;;;;;;;6.10;2.10;;;27.70;39.20;;;;;;5028140;28;20042;-51
2021/06/15 13:15:46;;;;;;;4.82;1.48;;;27.80;38.30;;;;;;5020474;28;20042;-49
2021/06/15 13:18:12;;;;;;;7.68;2.92;;;28.00;37.90;;;;;;5028429;28;20140;-49
2021/06/15 13:20:41;;;;;;;7.72;1.95;;;28.10;38.80;;;;;;5027482;28;20483;-50
2021/06/15 13:23:20;;;;;;;6.70;4.25;;;28.10;37.10;;;;;;5029916;28;20389;-50
2021/06/15 13:25:46;;;;;;;13.23;8.18;;;29.00;36.90;;;;;;5029486;28;20049;-49